Time;durP1;ratioP1;P1;durP2;ratioP2;P2;SDS_P1;SDS_P2;PMS_P1;PMS_P2;Temp;Humidity;BMP_temperature;BMP_pressure;BME280_temperature;BME280_humidity;BME280_pressure;Samples;Min_cycle;Max_cycle;Signal;HPM_P1;HPM_P2
2023/12/23 00:01:37;;;;;;;25.88;4.18;;;;;;;;;;5043208;28;20041;-75
2023/12/23 00:04:03;;;;;;;27.50;3.90;;;;;;;;;;5043745;28;20095;-74
2023/12/23 00:06:29;;;;;;;37.63;4.93;;;;;;;;;;5045540;28;20043;-74
2023/12/23 00:08:55;;;;;;;29.08;3.45;;;;;;;;;;5043446;28;20029;-74
2023/12/23 00:11:22;;;;;;;26.25;4.63;;;;;;;;;;5046371;28;20029;-74
2023/12/23 00:13:48;;;;;;;21.55;2.75;;;;;;;;;;5032071;28;20112;-73
2023/12/23 00:16:14;;;;;;;26.25;3.00;;;;;;;;;;5030247;28;20490;-73
2023/12/23 00:18:40;;;;;;;45.47;4.15;;;;;;;;;;5043919;28;20049;-73
2023/12/23 00:21:07;;;;;;;34.20;3.80;;;;;;;;;;5045893;28;20044;-74
2023/12/23 00:23:33;;;;;;;34.17;3.53;;;;;;;;;;5030631;28;20035;-74
2023/12/23 00:26:00;;;;;;;23.90;3.38;;;;;;;;;;5050931;28;20158;-73
2023/12/23 00:28:26;;;;;;;27.30;3.42;;;;;;;;;;5049411;28;20033;-73
2023/12/23 00:30:52;;;;;;;22.88;4.28;;;;;;;;;;5032728;28;20132;-74
2023/12/23 00:33:19;;;;;;;34.78;3.85;;;;;;;;;;5065314;28;20124;-73
2023/12/23 00:35:45;;;;;;;35.10;3.70;;;;;;;;;;5051016;28;20032;-74
2023/12/23 00:38:11;;;;;;;28.30;3.38;;;;;;;;;;5033162;28;20091;-73
2023/12/23 00:40:38;;;;;;;29.42;4.40;;;;;;;;;;5047732;28;20028;-73
2023/12/23 00:43:04;;;;;;;24.58;3.05;;;;;;;;;;5048781;28;20124;-73
2023/12/23 00:45:31;;;;;;;32.28;2.97;;;;;;;;;;5047507;28;20083;-74
2023/12/23 00:47:57;;;;;;;34.70;3.60;;;;;;;;;;5046629;28;20409;-74
2023/12/23 00:50:23;;;;;;;32.13;2.97;;;;;;;;;;5049223;28;20051;-74
2023/12/23 00:52:49;;;;;;;21.60;2.75;;;;;;;;;;5032576;28;20032;-74
2023/12/23 00:55:15;;;;;;;29.23;3.88;;;;;;;;;;5032478;28;20021;-74
2023/12/23 00:57:41;;;;;;;25.08;3.65;;;;;;;;;;5049358;28;20029;-73
2023/12/23 01:00:07;;;;;;;35.47;4.43;;;;;;;;;;5045914;28;20083;-75
2023/12/23 01:02:34;;;;;;;18.05;2.90;;;;;;;;;;5048185;28;20041;-74
2023/12/23 01:05:00;;;;;;;30.73;2.92;;;;;;;;;;5051450;28;20036;-74
2023/12/23 01:07:26;;;;;;;26.70;4.50;;;;;;;;;;5046563;28;20033;-74
2023/12/23 01:09:52;;;;;;;28.55;3.28;;;;;;;;;;5031506;28;20386;-74
2023/12/23 01:12:18;;;;;;;30.75;3.63;;;;;;;;;;5031418;28;20040;-74
2023/12/23 01:14:44;;;;;;;31.05;3.20;;;;;;;;;;5048848;28;20041;-74
2023/12/23 01:17:11;;;;;;;24.40;3.28;;;;;;;;;;5048950;28;20041;-73
2023/12/23 01:19:37;;;;;;;33.35;4.05;;;;;;;;;;5049248;28;20043;-74
2023/12/23 01:22:04;;;;;;;26.27;2.92;;;;;;;;;;5047924;28;20175;-75
2023/12/23 01:24:30;;;;;;;25.35;3.72;;;;;;;;;;5048300;28;20119;-76
2023/12/23 01:26:57;;;;;;;24.38;2.70;;;;;;;;;;5055798;28;20350;-76
2023/12/23 01:29:23;;;;;;;29.55;3.08;;;;;;;;;;5057449;28;20057;-76
2023/12/23 01:31:49;;;;;;;32.08;3.83;;;;;;;;;;5069956;28;20063;-76
2023/12/23 01:34:15;;;;;;;28.25;3.30;;;;;;;;;;5048249;28;20045;-76
2023/12/23 01:36:42;;;;;;;28.92;3.97;;;;;;;;;;5049027;28;20029;-75
2023/12/23 01:39:09;;;;;;;29.35;4.05;;;;;;;;;;5045461;28;20094;-74
2023/12/23 01:41:36;;;;;;;28.88;3.15;;;;;;;;;;5046552;28;20063;-75
2023/12/23 01:44:02;;;;;;;19.05;2.70;;;;;;;;;;5050286;28;20025;-76
2023/12/23 01:46:28;;;;;;;30.92;3.38;;;;;;;;;;5015956;28;20025;-75
2023/12/23 01:48:56;;;;;;;30.58;3.10;;;;;;;;;;5045564;28;20376;-76
2023/12/23 01:51:23;;;;;;;26.65;3.35;;;;;;;;;;5044573;28;20422;-76
2023/12/23 01:53:49;;;;;;;27.33;3.45;;;;;;;;;;5045510;28;20044;-75
2023/12/23 01:56:16;;;;;;;27.58;4.18;;;;;;;;;;5048425;28;20149;-75
2023/12/23 01:58:42;;;;;;;24.55;4.82;;;;;;;;;;5047698;28;20047;-75
2023/12/23 02:01:08;;;;;;;25.35;3.67;;;;;;;;;;5049314;28;20102;-75
2023/12/23 02:03:34;;;;;;;21.88;3.65;;;;;;;;;;5043136;28;20033;-75
2023/12/23 02:06:00;;;;;;;27.40;4.55;;;;;;;;;;5031557;28;20059;-75
2023/12/23 02:08:27;;;;;;;30.45;4.15;;;;;;;;;;5044544;28;20021;-75
2023/12/23 02:11:03;;;;;;;22.85;3.97;;;;;;;;;;5046052;28;20033;-75
2023/12/23 02:13:34;;;;;;;19.33;3.30;;;;;;;;;;5047799;28;20421;-75
2023/12/23 02:16:02;;;;;;;19.90;3.30;;;;;;;;;;5049678;28;20113;-75
2023/12/23 02:18:28;;;;;;;17.85;2.95;;;;;;;;;;5046975;28;20394;-76
2023/12/23 02:20:55;;;;;;;11.68;2.38;;;;;;;;;;5047456;28;20032;-76
2023/12/23 02:23:21;;;;;;;11.27;2.65;;;;;;;;;;5047764;28;20386;-76
2023/12/23 02:25:53;;;;;;;11.35;2.60;;;;;;;;;;5045968;28;20037;-76
2023/12/23 02:28:20;;;;;;;7.07;2.17;;;;;;;;;;5055131;28;20024;-76
2023/12/23 02:30:46;;;;;;;14.75;3.08;;;;;;;;;;5030674;28;20599;-76
2023/12/23 02:33:12;;;;;;;19.17;3.38;;;;;;;;;;5045239;28;20021;-76
2023/12/23 02:35:39;;;;;;;15.82;4.00;;;;;;;;;;5043137;28;20036;-76
2023/12/23 02:38:05;;;;;;;25.52;4.72;;;;;;;;;;5049071;28;20032;-75
2023/12/23 02:40:31;;;;;;;27.95;5.80;;;;;;;;;;5047164;28;20131;-75
2023/12/23 02:42:57;;;;;;;25.73;5.57;;;;;;;;;;5044567;28;20108;-75
2023/12/23 02:45:23;;;;;;;28.67;5.70;;;;;;;;;;5045816;28;20449;-75
2023/12/23 02:47:49;;;;;;;25.80;6.28;;;;;;;;;;5046719;28;20025;-75
2023/12/23 02:50:16;;;;;;;33.25;8.55;;;;;;;;;;5047030;28;20043;-76
2023/12/23 02:52:42;;;;;;;30.75;6.60;;;;;;;;;;5044300;28;20110;-75
2023/12/23 02:55:08;;;;;;;32.25;5.95;;;;;;;;;;5045056;28;20536;-75
2023/12/23 02:57:34;;;;;;;25.00;5.65;;;;;;;;;;5030694;28;20036;-74
2023/12/23 03:00:03;;;;;;;27.92;5.63;;;;;;;;;;5046783;28;20033;-75
2023/12/23 03:02:29;;;;;;;38.70;6.10;;;;;;;;;;5041207;28;20033;-75
2023/12/23 03:04:55;;;;;;;32.17;5.63;;;;;;;;;;5042440;28;20090;-75
2023/12/23 03:07:21;;;;;;;33.58;4.97;;;;;;;;;;5032910;28;20021;-75
2023/12/23 03:09:51;;;;;;;34.05;5.00;;;;;;;;;;5047850;28;20048;-75
2023/12/23 03:12:20;;;;;;;29.52;5.30;;;;;;;;;;5045632;28;20124;-74
2023/12/23 03:14:46;;;;;;;27.42;4.63;;;;;;;;;;5031233;28;20175;-75
2023/12/23 03:17:13;;;;;;;21.08;3.60;;;;;;;;;;5044718;28;20298;-74
2023/12/23 03:19:41;;;;;;;27.23;4.07;;;;;;;;;;5047002;28;20040;-74
2023/12/23 03:22:07;;;;;;;27.48;4.10;;;;;;;;;;5047245;28;20052;-75
2023/12/23 03:24:35;;;;;;;28.67;3.72;;;;;;;;;;5030257;28;20041;-74
2023/12/23 03:27:01;;;;;;;19.90;3.80;;;;;;;;;;5029025;28;20129;-73
2023/12/23 03:29:27;;;;;;;25.17;3.97;;;;;;;;;;5043558;28;20033;-74
2023/12/23 03:31:53;;;;;;;29.95;4.55;;;;;;;;;;5044496;28;20411;-74
2023/12/23 03:34:20;;;;;;;21.50;4.10;;;;;;;;;;5055890;28;20029;-74
2023/12/23 03:36:47;;;;;;;20.50;4.40;;;;;;;;;;5048310;28;20386;-74
2023/12/23 03:39:13;;;;;;;25.30;3.40;;;;;;;;;;5040880;28;20029;-74
2023/12/23 03:41:39;;;;;;;20.38;3.25;;;;;;;;;;5028607;28;20405;-75
2023/12/23 03:44:06;;;;;;;24.77;4.57;;;;;;;;;;5043713;28;20040;-76
2023/12/23 03:46:32;;;;;;;17.15;3.10;;;;;;;;;;5047490;28;20029;-74
2023/12/23 03:48:59;;;;;;;33.92;4.93;;;;;;;;;;5042670;28;20033;-74
2023/12/23 03:51:25;;;;;;;20.25;3.50;;;;;;;;;;5040636;28;20060;-73
2023/12/23 03:53:51;;;;;;;19.20;3.60;;;;;;;;;;5046005;28;20025;-74
2023/12/23 03:56:17;;;;;;;18.65;4.15;;;;;;;;;;5046444;28;20098;-75
2023/12/23 03:58:44;;;;;;;28.40;4.22;;;;;;;;;;5046030;28;20029;-74
2023/12/23 04:01:10;;;;;;;26.63;4.18;;;;;;;;;;5044655;28;20045;-74
2023/12/23 04:03:36;;;;;;;26.90;3.08;;;;;;;;;;5042211;28;20037;-73
2023/12/23 04:06:03;;;;;;;21.13;3.35;;;;;;;;;;5045576;28;20055;-75
2023/12/23 04:08:29;;;;;;;18.52;3.63;;;;;;;;;;5045750;28;20055;-73
2023/12/23 04:10:56;;;;;;;20.35;3.55;;;;;;;;;;5043274;28;20039;-74
2023/12/23 04:13:22;;;;;;;28.75;4.20;;;;;;;;;;5060996;28;20128;-73
2023/12/23 04:15:48;;;;;;;21.00;3.80;;;;;;;;;;5047902;28;20025;-75
2023/12/23 04:18:14;;;;;;;19.10;4.05;;;;;;;;;;5031262;28;20147;-75
2023/12/23 04:20:40;;;;;;;19.35;2.60;;;;;;;;;;5046349;28;20053;-74
2023/12/23 04:23:07;;;;;;;20.48;3.78;;;;;;;;;;5043254;28;20017;-76
2023/12/23 04:25:33;;;;;;;23.80;3.50;;;;;;;;;;5045080;28;20021;-74
2023/12/23 04:28:00;;;;;;;22.35;3.85;;;;;;;;;;5043101;28;20033;-74
2023/12/23 04:30:26;;;;;;;20.02;4.05;;;;;;;;;;5045926;28;20504;-74
2023/12/23 04:32:52;;;;;;;22.50;3.88;;;;;;;;;;5045466;28;20128;-73
2023/12/23 04:35:18;;;;;;;20.83;3.95;;;;;;;;;;5029743;28;20493;-74
2023/12/23 04:37:45;;;;;;;25.98;3.75;;;;;;;;;;5026582;28;20030;-74
2023/12/23 04:40:11;;;;;;;26.20;4.18;;;;;;;;;;5060673;28;20022;-73
2023/12/23 04:42:39;;;;;;;27.80;3.83;;;;;;;;;;5039235;28;20476;-74
2023/12/23 04:45:06;;;;;;;26.38;3.72;;;;;;;;;;5043886;28;20045;-74
2023/12/23 04:47:33;;;;;;;20.38;3.05;;;;;;;;;;5044112;28;20037;-74
2023/12/23 04:49:59;;;;;;;24.25;4.10;;;;;;;;;;5047175;28;20048;-74
2023/12/23 04:52:25;;;;;;;23.80;4.50;;;;;;;;;;5041565;28;20102;-75
2023/12/23 04:54:51;;;;;;;18.33;3.55;;;;;;;;;;5046072;28;20029;-74
2023/12/23 04:57:18;;;;;;;23.83;3.67;;;;;;;;;;5028493;28;20048;-74
2023/12/23 04:59:44;;;;;;;26.05;3.63;;;;;;;;;;5042168;28;20178;-75
2023/12/23 05:02:11;;;;;;;28.30;3.55;;;;;;;;;;5042059;28;20053;-74
2023/12/23 05:04:37;;;;;;;14.93;3.58;;;;;;;;;;5041510;28;20082;-75
2023/12/23 05:07:03;;;;;;;22.17;3.72;;;;;;;;;;5041117;28;20394;-74
2023/12/23 05:09:29;;;;;;;21.15;3.88;;;;;;;;;;5043768;28;20036;-75
2023/12/23 05:11:56;;;;;;;25.73;3.90;;;;;;;;;;5032398;28;20064;-75
2023/12/23 05:14:25;;;;;;;17.60;4.22;;;;;;;;;;5045489;28;20036;-74
2023/12/23 05:16:55;;;;;;;22.40;3.27;;;;;;;;;;5050698;28;20090;-74
2023/12/23 05:19:21;;;;;;;25.35;4.25;;;;;;;;;;5049152;28;20056;-75
2023/12/23 05:21:47;;;;;;;21.58;2.88;;;;;;;;;;5032670;28;20048;-73
2023/12/23 05:24:14;;;;;;;25.92;3.92;;;;;;;;;;5080509;28;20035;-74
2023/12/23 05:26:40;;;;;;;23.15;3.47;;;;;;;;;;5050186;28;20174;-72
2023/12/23 05:29:06;;;;;;;21.45;3.13;;;;;;;;;;5047175;28;20039;-74
2023/12/23 05:31:34;;;;;;;23.55;3.95;;;;;;;;;;5048437;28;20036;-74
2023/12/23 05:34:00;;;;;;;23.65;3.25;;;;;;;;;;5049643;28;20033;-72
2023/12/23 05:36:26;;;;;;;25.92;4.82;;;;;;;;;;5050920;28;20109;-75
2023/12/23 05:38:56;;;;;;;19.33;4.15;;;;;;;;;;5042424;28;20144;-75
2023/12/23 05:41:22;;;;;;;21.08;4.53;;;;;;;;;;5045076;28;20028;-74
2023/12/23 05:43:48;;;;;;;28.17;4.05;;;;;;;;;;5047401;28;20032;-74
2023/12/23 05:46:14;;;;;;;22.50;4.35;;;;;;;;;;5048014;28;20073;-74
2023/12/23 05:48:40;;;;;;;22.27;3.95;;;;;;;;;;5046282;28;20073;-73
2023/12/23 05:51:11;;;;;;;25.35;4.43;;;;;;;;;;5045592;28;20120;-73
2023/12/23 05:53:37;;;;;;;22.73;3.92;;;;;;;;;;5045444;28;20094;-74
2023/12/23 05:56:04;;;;;;;24.67;4.65;;;;;;;;;;5050087;28;20029;-73
2023/12/23 05:58:31;;;;;;;24.40;4.28;;;;;;;;;;5049259;28;20039;-75
2023/12/23 06:00:57;;;;;;;21.83;3.90;;;;;;;;;;5045196;28;20216;-74
2023/12/23 06:03:23;;;;;;;25.70;3.63;;;;;;;;;;5040112;28;20039;-74
2023/12/23 06:05:50;;;;;;;30.33;5.50;;;;;;;;;;5048443;28;20466;-74
2023/12/23 06:08:16;;;;;;;27.10;4.22;;;;;;;;;;5050243;28;20025;-74
2023/12/23 06:10:42;;;;;;;27.60;4.95;;;;;;;;;;5048194;28;20110;-74
2023/12/23 06:13:08;;;;;;;25.02;4.93;;;;;;;;;;5047328;28;20132;-75
2023/12/23 06:15:34;;;;;;;27.38;3.65;;;;;;;;;;5047378;28;20494;-73
2023/12/23 06:18:02;;;;;;;35.03;3.90;;;;;;;;;;5046030;28;20087;-73
2023/12/23 06:20:28;;;;;;;32.67;4.82;;;;;;;;;;5044683;28;20163;-74
2023/12/23 06:22:56;;;;;;;23.42;4.25;;;;;;;;;;5043420;28;20135;-75
2023/12/23 06:25:25;;;;;;;24.63;4.07;;;;;;;;;;5049136;28;20029;-75
2023/12/23 06:27:51;;;;;;;32.47;5.45;;;;;;;;;;5048636;28;20055;-75
2023/12/23 06:30:17;;;;;;;32.78;3.88;;;;;;;;;;5048433;28;21056;-75
2023/12/23 06:32:43;;;;;;;27.88;4.05;;;;;;;;;;5045310;28;20122;-75
2023/12/23 06:35:09;;;;;;;25.48;4.45;;;;;;;;;;5047727;28;20032;-73
2023/12/23 06:37:36;;;;;;;33.60;5.15;;;;;;;;;;5046373;28;20083;-74
2023/12/23 06:40:02;;;;;;;31.60;4.20;;;;;;;;;;5044769;28;20021;-76
2023/12/23 06:42:28;;;;;;;28.42;4.85;;;;;;;;;;5043847;28;20078;-74
2023/12/23 06:44:54;;;;;;;28.77;3.75;;;;;;;;;;5047813;28;20089;-73
2023/12/23 06:47:20;;;;;;;29.73;5.38;;;;;;;;;;5046433;28;20033;-73
2023/12/23 06:49:46;;;;;;;20.83;3.78;;;;;;;;;;5030611;28;20029;-74
2023/12/23 06:52:13;;;;;;;19.10;3.63;;;;;;;;;;5046869;28;20459;-74
2023/12/23 06:54:40;;;;;;;19.23;3.50;;;;;;;;;;5045844;28;20478;-73
2023/12/23 06:57:06;;;;;;;24.73;4.75;;;;;;;;;;5048679;28;20036;-75
2023/12/23 06:59:32;;;;;;;26.95;5.38;;;;;;;;;;5045851;28;20033;-72
2023/12/23 07:01:59;;;;;;;22.08;4.28;;;;;;;;;;5046836;28;20318;-74
2023/12/23 07:04:25;;;;;;;21.02;3.20;;;;;;;;;;5047129;28;20379;-74
2023/12/23 07:06:51;;;;;;;28.67;3.33;;;;;;;;;;5047078;28;20122;-75
2023/12/23 07:09:17;;;;;;;17.58;3.30;;;;;;;;;;5044917;28;20174;-74
2023/12/23 07:11:43;;;;;;;18.45;3.53;;;;;;;;;;5027998;28;20033;-73
2023/12/23 07:14:09;;;;;;;19.55;3.45;;;;;;;;;;5030076;28;20099;-75
2023/12/23 07:16:35;;;;;;;20.30;3.60;;;;;;;;;;5058603;28;20063;-72
2023/12/23 07:19:02;;;;;;;19.60;3.22;;;;;;;;;;5029642;28;20172;-74
2023/12/23 07:21:28;;;;;;;24.25;4.53;;;;;;;;;;5044666;28;20065;-74
2023/12/23 07:23:54;;;;;;;23.92;4.53;;;;;;;;;;5033716;28;20437;-74
2023/12/23 07:26:21;;;;;;;21.55;3.67;;;;;;;;;;5047615;28;20032;-75
2023/12/23 07:28:48;;;;;;;24.77;3.65;;;;;;;;;;5044347;28;20128;-74
2023/12/23 07:31:14;;;;;;;19.90;3.45;;;;;;;;;;5047325;28;20441;-73
2023/12/23 07:33:40;;;;;;;29.60;4.07;;;;;;;;;;5040568;28;20228;-73
2023/12/23 07:36:06;;;;;;;20.48;4.00;;;;;;;;;;5046885;28;20032;-73
2023/12/23 07:38:32;;;;;;;27.42;4.93;;;;;;;;;;5048600;28;20390;-74
2023/12/23 07:40:58;;;;;;;23.15;3.60;;;;;;;;;;5037668;28;20422;-75
2023/12/23 07:43:25;;;;;;;25.30;4.35;;;;;;;;;;5032446;28;20033;-73
2023/12/23 07:45:51;;;;;;;25.90;4.40;;;;;;;;;;5041137;28;20037;-75
2023/12/23 07:48:17;;;;;;;26.00;3.38;;;;;;;;;;5043486;28;20076;-75
2023/12/23 07:50:43;;;;;;;19.27;3.88;;;;;;;;;;5044647;28;20115;-74
2023/12/23 07:53:09;;;;;;;18.13;4.07;;;;;;;;;;5042476;28;20052;-74
2023/12/23 07:55:35;;;;;;;27.05;4.80;;;;;;;;;;5047459;28;20059;-74
2023/12/23 07:58:02;;;;;;;26.52;4.80;;;;;;;;;;5037289;28;20344;-75
2023/12/23 08:00:28;;;;;;;22.63;4.25;;;;;;;;;;5043516;28;20406;-74
2023/12/23 08:02:54;;;;;;;21.77;3.45;;;;;;;;;;5037072;28;20122;-75
2023/12/23 08:05:20;;;;;;;23.33;4.25;;;;;;;;;;5042587;28;20681;-76
2023/12/23 08:07:46;;;;;;;24.52;3.08;;;;;;;;;;5034240;28;20040;-73
2023/12/23 08:10:12;;;;;;;19.98;3.80;;;;;;;;;;5051944;28;20064;-76
2023/12/23 08:12:39;;;;;;;20.05;3.20;;;;;;;;;;5074556;28;20476;-75
2023/12/23 08:15:05;;;;;;;24.52;3.55;;;;;;;;;;5041534;28;20538;-74
2023/12/23 08:17:31;;;;;;;21.40;3.83;;;;;;;;;;5039616;28;20037;-73
2023/12/23 08:19:57;;;;;;;23.98;3.95;;;;;;;;;;5046972;28;20030;-75
2023/12/23 08:22:23;;;;;;;20.00;3.28;;;;;;;;;;5047643;28;20041;-73
2023/12/23 08:24:49;;;;;;;25.05;3.58;;;;;;;;;;5032541;28;20138;-74
2023/12/23 08:27:16;;;;;;;20.05;3.78;;;;;;;;;;5042837;28;20041;-74
2023/12/23 08:29:42;;;;;;;24.45;4.93;;;;;;;;;;5048602;28;20098;-74
2023/12/23 08:32:08;;;;;;;23.38;5.25;;;;;;;;;;5047146;28;20064;-75
2023/12/23 08:34:34;;;;;;;26.50;3.72;;;;;;;;;;5038284;28;20033;-74
2023/12/23 08:37:00;;;;;;;24.38;4.57;;;;;;;;;;5041175;28;20025;-74
2023/12/23 08:39:26;;;;;;;20.92;3.22;;;;;;;;;;5034542;28;20557;-74
2023/12/23 08:41:52;;;;;;;24.20;3.40;;;;;;;;;;5041612;28;20513;-75
2023/12/23 08:44:21;;;;;;;19.75;3.20;;;;;;;;;;5030987;28;20048;-74
2023/12/23 08:46:47;;;;;;;17.00;3.65;;;;;;;;;;5067015;28;20386;-74
2023/12/23 08:49:14;;;;;;;17.70;3.22;;;;;;;;;;5033497;28;20324;-74
2023/12/23 08:51:40;;;;;;;21.25;3.10;;;;;;;;;;5036688;28;20032;-74
2023/12/23 08:54:06;;;;;;;15.85;3.17;;;;;;;;;;5040003;28;20029;-74
2023/12/23 08:56:32;;;;;;;21.27;2.85;;;;;;;;;;5049274;28;20024;-75
2023/12/23 08:58:58;;;;;;;18.30;2.83;;;;;;;;;;5040983;28;20087;-74
2023/12/23 09:01:24;;;;;;;14.65;2.90;;;;;;;;;;5031707;28;20110;-74
2023/12/23 09:03:50;;;;;;;17.20;3.10;;;;;;;;;;5076963;28;20505;-76
2023/12/23 09:06:17;;;;;;;18.25;3.67;;;;;;;;;;5049765;28;20060;-74
2023/12/23 09:08:43;;;;;;;19.35;4.68;;;;;;;;;;5048629;28;20037;-74
2023/12/23 09:11:10;;;;;;;16.58;3.42;;;;;;;;;;5040909;28;20120;-75
2023/12/23 09:13:37;;;;;;;24.17;3.50;;;;;;;;;;5032701;28;20030;-76
2023/12/23 09:16:04;;;;;;;22.55;5.05;;;;;;;;;;5034575;28;20052;-76
2023/12/23 09:18:31;;;;;;;22.33;3.63;;;;;;;;;;5064024;28;20183;-74
2023/12/23 09:20:57;;;;;;;18.75;3.63;;;;;;;;;;5049886;28;20036;-75
2023/12/23 09:23:23;;;;;;;22.38;3.88;;;;;;;;;;5042169;28;20025;-74
2023/12/23 09:25:51;;;;;;;18.20;3.80;;;;;;;;;;5036386;28;20115;-75
2023/12/23 09:28:18;;;;;;;29.30;3.95;;;;;;;;;;5038743;28;20106;-76
2023/12/23 09:30:44;;;;;;;25.58;4.05;;;;;;;;;;5048840;28;20067;-74
2023/12/23 09:33:10;;;;;;;29.42;5.25;;;;;;;;;;5057251;28;20048;-74
2023/12/23 09:35:36;;;;;;;16.70;2.75;;;;;;;;;;5051844;28;20041;-73
2023/12/23 09:38:02;;;;;;;27.30;4.43;;;;;;;;;;5045075;28;20128;-74
2023/12/23 09:40:29;;;;;;;23.50;4.13;;;;;;;;;;5038524;28;20043;-75
2023/12/23 09:42:55;;;;;;;23.77;3.88;;;;;;;;;;5044136;28;20056;-74
2023/12/23 09:45:21;;;;;;;15.02;3.50;;;;;;;;;;5048657;28;20056;-75
2023/12/23 09:47:47;;;;;;;28.27;3.75;;;;;;;;;;5049495;28;20731;-75
2023/12/23 09:50:14;;;;;;;21.17;3.40;;;;;;;;;;5030521;28;20547;-74
2023/12/23 09:52:40;;;;;;;23.33;4.05;;;;;;;;;;5049658;28;20116;-74
2023/12/23 09:55:09;;;;;;;15.20;3.03;;;;;;;;;;5049358;28;20048;-75
2023/12/23 09:57:36;;;;;;;18.75;4.07;;;;;;;;;;5049872;28;20060;-75
2023/12/23 10:00:03;;;;;;;25.38;2.97;;;;;;;;;;5049029;28;20036;-75
2023/12/23 10:02:37;;;;;;;16.02;3.03;;;;;;;;;;5051062;28;20037;-73
2023/12/23 10:05:04;;;;;;;23.05;4.13;;;;;;;;;;5050505;28;20063;-75
2023/12/23 10:07:30;;;;;;;22.88;3.25;;;;;;;;;;5043664;28;20443;-75
2023/12/23 10:09:57;;;;;;;18.60;2.58;;;;;;;;;;5044233;28;20041;-74
2023/12/23 10:12:23;;;;;;;20.20;3.25;;;;;;;;;;5049236;28;20120;-74
2023/12/23 10:14:50;;;;;;;20.92;3.72;;;;;;;;;;5050361;28;20080;-73
2023/12/23 10:17:19;;;;;;;12.18;3.03;;;;;;;;;;5038208;28;20116;-73
2023/12/23 10:19:48;;;;;;;18.50;3.30;;;;;;;;;;5050541;28;20065;-73
2023/12/23 10:22:18;;;;;;;21.60;3.50;;;;;;;;;;5048785;28;20135;-75
2023/12/23 10:24:44;;;;;;;16.50;3.03;;;;;;;;;;5048456;28;20043;-75
2023/12/23 10:27:13;;;;;;;17.50;3.08;;;;;;;;;;5052248;28;20153;-74
2023/12/23 10:29:40;;;;;;;18.92;3.70;;;;;;;;;;5037594;28;20028;-73
2023/12/23 10:32:10;;;;;;;17.23;3.15;;;;;;;;;;5043942;28;20079;-74
2023/12/23 10:34:49;;;;;;;19.30;2.95;;;;;;;;;;5033327;28;20052;-73
2023/12/23 10:37:16;;;;;;;19.10;3.33;;;;;;;;;;5035486;28;20113;-75
2023/12/23 10:39:51;;;;;;;20.58;2.95;;;;;;;;;;5045977;28;20041;-75
2023/12/23 10:42:22;;;;;;;16.40;3.03;;;;;;;;;;5049035;28;20029;-75
2023/12/23 10:44:48;;;;;;;;;;;;;;;;;;5050449;28;20078;-74
2023/12/23 10:47:15;;;;;;;15.27;2.50;;;;;;;;;;5045272;28;19917;-76
2023/12/23 10:49:44;;;;;;;13.07;2.80;;;;;;;;;;5028567;28;20227;-74
2023/12/23 10:52:11;;;;;;;19.05;2.90;;;;;;;;;;5037304;28;20081;-75
2023/12/23 10:54:37;;;;;;;17.45;2.90;;;;;;;;;;5049784;28;20103;-75
2023/12/23 10:57:05;;;;;;;19.35;2.67;;;;;;;;;;5044176;28;20052;-74
2023/12/23 10:59:31;;;;;;;16.50;3.35;;;;;;;;;;5048633;28;20033;-74
2023/12/23 11:01:57;;;;;;;18.83;2.50;;;;;;;;;;5047408;28;20460;-75
2023/12/23 11:04:27;;;;;;;17.50;3.38;;;;;;;;;;5046398;28;20030;-74
2023/12/23 11:06:55;;;;;;;16.85;2.72;;;;;;;;;;5043380;28;20082;-75
2023/12/23 11:09:22;;;;;;;17.00;2.78;;;;;;;;;;5032563;28;20395;-75
2023/12/23 11:11:48;;;;;;;15.00;3.58;;;;;;;;;;5048226;28;20470;-76
2023/12/23 11:14:15;;;;;;;22.90;2.90;;;;;;;;;;5047653;28;20040;-75
2023/12/23 11:16:42;;;;;;;15.23;2.30;;;;;;;;;;5073453;28;20036;-73
2023/12/23 11:19:09;;;;;;;17.67;2.63;;;;;;;;;;5029728;28;20041;-74
2023/12/23 11:21:35;;;;;;;15.40;2.70;;;;;;;;;;5028027;28;20029;-73
2023/12/23 11:24:02;;;;;;;20.00;2.80;;;;;;;;;;5056606;28;20087;-74
2023/12/23 11:26:54;;;;;;;19.20;2.70;;;;;;;;;;5060647;28;20042;-75
2023/12/23 11:29:22;;;;;;;23.92;3.42;;;;;;;;;;5052802;28;20062;-74
2023/12/23 11:31:49;;;;;;;20.23;2.85;;;;;;;;;;5043670;28;20037;-74
2023/12/23 11:34:20;;;;;;;13.82;2.15;;;;;;;;;;5015335;28;20033;-74
2023/12/23 11:36:46;;;;;;;15.07;2.50;;;;;;;;;;5028817;28;20068;-74
2023/12/23 11:39:13;;;;;;;15.95;2.22;;;;;;;;;;5040237;28;20088;-74
2023/12/23 11:41:46;;;;;;;13.88;2.15;;;;;;;;;;5045850;28;20040;-74
2023/12/23 11:44:13;;;;;;;11.93;2.13;;;;;;;;;;5049461;28;20082;-74
2023/12/23 11:46:43;;;;;;;19.48;3.22;;;;;;;;;;5039192;28;20048;-75
2023/12/23 11:49:09;;;;;;;14.77;2.63;;;;;;;;;;5048197;28;20082;-75
2023/12/23 11:51:37;;;;;;;16.17;2.15;;;;;;;;;;5049253;28;20044;-75
2023/12/23 11:54:03;;;;;;;14.43;2.78;;;;;;;;;;5042535;28;20085;-74
2023/12/23 11:56:29;;;;;;;10.73;2.10;;;;;;;;;;5045171;28;20047;-75
2023/12/23 11:58:56;;;;;;;16.63;2.78;;;;;;;;;;5044058;28;20036;-75
2023/12/23 12:01:24;;;;;;;24.48;3.80;;;;;;;;;;5039056;28;20030;-74
2023/12/23 12:03:51;;;;;;;19.05;2.15;;;;;;;;;;5072334;28;20048;-74
2023/12/23 12:06:17;;;;;;;13.30;2.30;;;;;;;;;;5029058;28;20033;-74
2023/12/23 12:08:43;;;;;;;12.40;2.63;;;;;;;;;;5039311;28;20041;-74
2023/12/23 12:11:09;;;;;;;13.57;2.17;;;;;;;;;;5030038;28;20110;-73
2023/12/23 12:13:40;;;;;;;12.68;2.42;;;;;;;;;;5055712;28;20025;-74
2023/12/23 12:16:06;;;;;;;14.67;2.10;;;;;;;;;;5039340;28;20029;-74
2023/12/23 12:18:32;;;;;;;11.32;2.10;;;;;;;;;;5034381;28;20466;-75
2023/12/23 12:21:00;;;;;;;11.30;1.83;;;;;;;;;;5044125;28;20033;-75
2023/12/23 12:23:27;;;;;;;15.10;2.17;;;;;;;;;;5059693;28;20120;-76
2023/12/23 12:25:57;;;;;;;11.45;2.20;;;;;;;;;;5041101;28;20469;-76
2023/12/23 12:28:23;;;;;;;15.02;2.08;;;;;;;;;;5028514;28;20108;-74
2023/12/23 12:30:50;;;;;;;16.77;2.25;;;;;;;;;;5041801;28;20033;-74
2023/12/23 12:33:16;;;;;;;12.77;2.45;;;;;;;;;;5042007;28;20122;-76
2023/12/23 12:35:42;;;;;;;14.30;2.42;;;;;;;;;;5054649;28;20041;-76
2023/12/23 12:38:09;;;;;;;17.70;2.40;;;;;;;;;;5049221;28;20029;-76
2023/12/23 12:40:35;;;;;;;11.88;2.25;;;;;;;;;;5033057;28;20118;-75
2023/12/23 12:43:08;;;;;;;15.27;2.33;;;;;;;;;;5041703;28;20377;-76
2023/12/23 12:45:38;;;;;;;12.43;2.70;;;;;;;;;;5043398;28;20040;-75
2023/12/23 12:48:13;;;;;;;12.63;2.50;;;;;;;;;;5022824;28;20025;-75
2023/12/23 12:50:40;;;;;;;10.18;2.20;;;;;;;;;;5035841;28;20034;-75
2023/12/23 12:53:06;;;;;;;11.73;2.60;;;;;;;;;;5040594;28;20021;-74
2023/12/23 12:55:32;;;;;;;6.95;1.60;;;;;;;;;;5039267;28;20321;-75
2023/12/23 12:57:58;;;;;;;11.75;1.83;;;;;;;;;;5043446;28;20489;-75
2023/12/23 13:00:26;;;;;;;16.58;2.13;;;;;;;;;;5054704;28;20045;-75
2023/12/23 13:02:52;;;;;;;15.27;2.42;;;;;;;;;;5035732;28;20021;-75
2023/12/23 13:05:19;;;;;;;8.43;1.90;;;;;;;;;;5040436;28;20390;-75
2023/12/23 13:07:46;;;;;;;16.00;2.63;;;;;;;;;;5038710;28;20064;-74
2023/12/23 13:10:13;;;;;;;12.55;2.70;;;;;;;;;;5043649;28;20478;-74
2023/12/23 13:12:39;;;;;;;13.35;2.75;;;;;;;;;;5042540;28;20063;-76
2023/12/23 13:15:06;;;;;;;9.88;1.63;;;;;;;;;;5034338;28;20042;-77
2023/12/23 13:17:32;;;;;;;9.85;1.98;;;;;;;;;;5040816;28;20040;-75
2023/12/23 13:19:58;;;;;;;12.40;2.15;;;;;;;;;;5045296;28;20042;-76
2023/12/23 13:22:24;;;;;;;12.02;2.33;;;;;;;;;;5042798;28;20399;-75
2023/12/23 13:24:50;;;;;;;10.65;2.53;;;;;;;;;;5059096;28;20068;-76
2023/12/23 13:27:18;;;;;;;12.23;2.03;;;;;;;;;;5029598;28;20029;-74
2023/12/23 13:29:44;;;;;;;14.55;2.35;;;;;;;;;;5046521;28;20141;-75
2023/12/23 13:32:10;;;;;;;11.48;2.17;;;;;;;;;;5075590;28;20039;-74
2023/12/23 13:34:36;;;;;;;10.82;1.83;;;;;;;;;;5042579;28;20041;-75
2023/12/23 13:37:03;;;;;;;11.30;2.30;;;;;;;;;;5043928;28;20238;-76
2023/12/23 13:39:29;;;;;;;16.23;2.25;;;;;;;;;;5033193;28;20041;-76
2023/12/23 13:41:55;;;;;;;13.50;1.80;;;;;;;;;;5031375;28;20037;-75
2023/12/23 13:44:21;;;;;;;12.30;2.17;;;;;;;;;;5039826;28;20034;-75
2023/12/23 13:46:48;;;;;;;14.15;2.03;;;;;;;;;;5035665;28;20095;-75
2023/12/23 13:49:15;;;;;;;15.73;2.08;;;;;;;;;;5043701;28;20036;-77
2023/12/23 13:51:41;;;;;;;12.00;2.05;;;;;;;;;;5027305;28;20037;-77
2023/12/23 13:54:07;;;;;;;17.48;2.40;;;;;;;;;;5040621;28;20021;-76
2023/12/23 13:56:34;;;;;;;13.80;2.20;;;;;;;;;;5043410;28;20106;-75
2023/12/23 13:59:00;;;;;;;13.85;2.42;;;;;;;;;;5043247;28;20047;-76
2023/12/23 14:01:26;;;;;;;14.80;2.00;;;;;;;;;;5042868;28;20186;-76
2023/12/23 14:03:53;;;;;;;14.55;2.58;;;;;;;;;;5037795;28;20043;-76
2023/12/23 14:06:19;;;;;;;18.52;2.65;;;;;;;;;;5072833;28;20138;-78
2023/12/23 14:08:45;;;;;;;13.10;2.10;;;;;;;;;;5073196;28;20067;-76
2023/12/23 14:11:12;;;;;;;15.88;2.65;;;;;;;;;;5067966;28;20102;-76
2023/12/23 14:13:38;;;;;;;16.05;2.25;;;;;;;;;;5066167;28;20486;-76
2023/12/23 14:16:04;;;;;;;15.15;2.20;;;;;;;;;;5044680;28;20025;-75
2023/12/23 14:18:30;;;;;;;17.50;2.92;;;;;;;;;;5028814;28;20043;-76
2023/12/23 14:20:56;;;;;;;17.50;2.78;;;;;;;;;;5029465;28;20064;-76
2023/12/23 14:23:22;;;;;;;14.50;1.92;;;;;;;;;;5029340;28;20034;-76
2023/12/23 14:25:49;;;;;;;12.10;2.58;;;;;;;;;;5027784;28;20099;-76
2023/12/23 14:28:15;;;;;;;13.18;2.40;;;;;;;;;;5028729;28;20041;-76